sensor_id;sensor_type;location;lat;lon;timestamp;P1;durP1;ratioP1;P2;durP2;ratioP2
65583;SDS011;62116;43.582;1.470;2023-04-30T00:02:07;3.67;;;2.60;;
65583;SDS011;62116;43.582;1.470;2023-04-30T00:04:33;4.50;;;2.47;;
65583;SDS011;62116;43.582;1.470;2023-04-30T00:06:58;3.45;;;2.60;;
65583;SDS011;62116;43.582;1.470;2023-04-30T00:09:25;3.53;;;2.53;;
65583;SDS011;62116;43.582;1.470;2023-04-30T00:11:50;4.22;;;2.58;;
65583;SDS011;62116;43.582;1.470;2023-04-30T00:14:15;3.10;;;2.15;;
65583;SDS011;62116;43.582;1.470;2023-04-30T00:16:41;3.30;;;2.40;;
65583;SDS011;62116;43.582;1.470;2023-04-30T00:19:06;2.88;;;2.08;;
65583;SDS011;62116;43.582;1.470;2023-04-30T00:21:32;4.35;;;2.20;;
65583;SDS011;62116;43.582;1.470;2023-04-30T00:23:58;3.83;;;1.98;;
65583;SDS011;62116;43.582;1.470;2023-04-30T00:26:26;2.45;;;1.90;;
65583;SDS011;62116;43.582;1.470;2023-04-30T00:28:51;2.58;;;1.92;;
65583;SDS011;62116;43.582;1.470;2023-04-30T00:31:17;2.30;;;1.90;;
65583;SDS011;62116;43.582;1.470;2023-04-30T00:33:42;3.75;;;2.00;;
65583;SDS011;62116;43.582;1.470;2023-04-30T00:36:08;2.97;;;2.10;;
65583;SDS011;62116;43.582;1.470;2023-04-30T00:38:33;2.50;;;1.98;;
65583;SDS011;62116;43.582;1.470;2023-04-30T00:40:58;3.70;;;2.20;;
65583;SDS011;62116;43.582;1.470;2023-04-30T00:43:24;3.00;;;2.28;;
65583;SDS011;62116;43.582;1.470;2023-04-30T00:45:50;3.28;;;2.20;;
65583;SDS011;62116;43.582;1.470;2023-04-30T00:48:15;4.07;;;2.70;;
65583;SDS011;62116;43.582;1.470;2023-04-30T00:50:41;4.05;;;2.83;;
65583;SDS011;62116;43.582;1.470;2023-04-30T00:53:08;4.53;;;3.13;;
65583;SDS011;62116;43.582;1.470;2023-04-30T00:55:34;4.95;;;3.40;;
65583;SDS011;62116;43.582;1.470;2023-04-30T00:57:59;4.50;;;3.70;;
65583;SDS011;62116;43.582;1.470;2023-04-30T01:00:25;5.07;;;3.65;;
65583;SDS011;62116;43.582;1.470;2023-04-30T01:02:51;5.10;;;4.00;;
65583;SDS011;62116;43.582;1.470;2023-04-30T01:05:17;6.05;;;4.18;;
65583;SDS011;62116;43.582;1.470;2023-04-30T01:07:43;6.80;;;4.93;;
65583;SDS011;62116;43.582;1.470;2023-04-30T01:10:11;8.77;;;5.85;;
65583;SDS011;62116;43.582;1.470;2023-04-30T01:18:21;8.40;;;5.50;;
65583;SDS011;62116;43.582;1.470;2023-04-30T01:20:53;12.30;;;6.25;;
65583;SDS011;62116;43.582;1.470;2023-04-30T01:28:47;9.82;;;6.65;;
65583;SDS011;62116;43.582;1.470;2023-04-30T01:31:17;9.80;;;6.50;;
65583;SDS011;62116;43.582;1.470;2023-04-30T01:33:43;9.57;;;5.90;;
65583;SDS011;62116;43.582;1.470;2023-04-30T01:36:11;8.40;;;5.78;;
65583;SDS011;62116;43.582;1.470;2023-04-30T01:41:40;8.15;;;5.55;;
65583;SDS011;62116;43.582;1.470;2023-04-30T01:47:12;7.95;;;5.03;;
65583;SDS011;62116;43.582;1.470;2023-04-30T01:52:39;6.88;;;4.30;;
65583;SDS011;62116;43.582;1.470;2023-04-30T01:55:07;5.47;;;4.70;;
65583;SDS011;62116;43.582;1.470;2023-04-30T01:57:40;4.88;;;3.88;;
65583;SDS011;62116;43.582;1.470;2023-04-30T02:00:07;5.40;;;4.30;;
65583;SDS011;62116;43.582;1.470;2023-04-30T02:02:36;5.97;;;4.07;;
65583;SDS011;62116;43.582;1.470;2023-04-30T02:05:02;6.22;;;4.00;;
65583;SDS011;62116;43.582;1.470;2023-04-30T02:07:35;5.97;;;4.10;;
65583;SDS011;62116;43.582;1.470;2023-04-30T02:10:04;7.85;;;4.30;;
65583;SDS011;62116;43.582;1.470;2023-04-30T02:12:31;5.72;;;4.05;;
65583;SDS011;62116;43.582;1.470;2023-04-30T02:14:56;4.95;;;3.63;;
65583;SDS011;62116;43.582;1.470;2023-04-30T02:17:22;6.10;;;4.03;;
65583;SDS011;62116;43.582;1.470;2023-04-30T02:19:47;5.30;;;3.92;;
65583;SDS011;62116;43.582;1.470;2023-04-30T02:22:13;4.95;;;4.03;;
65583;SDS011;62116;43.582;1.470;2023-04-30T02:24:38;5.68;;;4.00;;
65583;SDS011;62116;43.582;1.470;2023-04-30T02:27:03;6.47;;;3.97;;
65583;SDS011;62116;43.582;1.470;2023-04-30T02:29:29;5.13;;;3.72;;
65583;SDS011;62116;43.582;1.470;2023-04-30T02:31:57;6.97;;;3.83;;
65583;SDS011;62116;43.582;1.470;2023-04-30T02:34:23;7.53;;;4.10;;
65583;SDS011;62116;43.582;1.470;2023-04-30T02:36:48;5.63;;;4.03;;
65583;SDS011;62116;43.582;1.470;2023-04-30T02:39:14;5.07;;;3.97;;
65583;SDS011;62116;43.582;1.470;2023-04-30T02:41:39;5.85;;;4.35;;
65583;SDS011;62116;43.582;1.470;2023-04-30T02:44:05;5.13;;;4.10;;
65583;SDS011;62116;43.582;1.470;2023-04-30T02:46:30;5.55;;;4.20;;
65583;SDS011;62116;43.582;1.470;2023-04-30T02:48:55;5.20;;;4.28;;
65583;SDS011;62116;43.582;1.470;2023-04-30T02:51:21;5.65;;;4.28;;
65583;SDS011;62116;43.582;1.470;2023-04-30T02:53:46;5.50;;;4.20;;
65583;SDS011;62116;43.582;1.470;2023-04-30T02:56:12;5.93;;;4.70;;
65583;SDS011;62116;43.582;1.470;2023-04-30T02:58:37;6.03;;;4.28;;
65583;SDS011;62116;43.582;1.470;2023-04-30T03:01:02;6.85;;;4.53;;
65583;SDS011;62116;43.582;1.470;2023-04-30T03:03:28;6.35;;;4.25;;
65583;SDS011;62116;43.582;1.470;2023-04-30T03:05:53;5.93;;;4.18;;
65583;SDS011;62116;43.582;1.470;2023-04-30T03:08:20;6.57;;;4.07;;
65583;SDS011;62116;43.582;1.470;2023-04-30T03:10:46;7.78;;;4.25;;
65583;SDS011;62116;43.582;1.470;2023-04-30T03:13:11;5.80;;;4.00;;
65583;SDS011;62116;43.582;1.470;2023-04-30T03:15:37;6.68;;;4.60;;
65583;SDS011;62116;43.582;1.470;2023-04-30T03:18:03;5.57;;;4.03;;
65583;SDS011;62116;43.582;1.470;2023-04-30T03:20:28;5.47;;;4.40;;
65583;SDS011;62116;43.582;1.470;2023-04-30T03:22:54;7.03;;;4.60;;
65583;SDS011;62116;43.582;1.470;2023-04-30T03:25:19;5.43;;;4.30;;
65583;SDS011;62116;43.582;1.470;2023-04-30T03:27:44;5.30;;;4.32;;
65583;SDS011;62116;43.582;1.470;2023-04-30T03:30:10;6.32;;;4.22;;
65583;SDS011;62116;43.582;1.470;2023-04-30T03:32:35;7.20;;;4.07;;
65583;SDS011;62116;43.582;1.470;2023-04-30T03:35:01;5.65;;;4.22;;
65583;SDS011;62116;43.582;1.470;2023-04-30T03:37:26;5.65;;;4.38;;
65583;SDS011;62116;43.582;1.470;2023-04-30T03:39:51;7.13;;;4.60;;
65583;SDS011;62116;43.582;1.470;2023-04-30T03:42:17;6.10;;;4.80;;
65583;SDS011;62116;43.582;1.470;2023-04-30T03:44:42;6.15;;;4.30;;
65583;SDS011;62116;43.582;1.470;2023-04-30T03:47:07;6.45;;;4.53;;
65583;SDS011;62116;43.582;1.470;2023-04-30T03:49:33;6.13;;;4.10;;
65583;SDS011;62116;43.582;1.470;2023-04-30T03:51:58;8.20;;;4.10;;
65583;SDS011;62116;43.582;1.470;2023-04-30T03:54:25;5.18;;;3.90;;
65583;SDS011;62116;43.582;1.470;2023-04-30T03:56:50;5.30;;;4.00;;
65583;SDS011;62116;43.582;1.470;2023-04-30T03:59:16;5.40;;;4.07;;
65583;SDS011;62116;43.582;1.470;2023-04-30T04:01:41;7.80;;;4.10;;
65583;SDS011;62116;43.582;1.470;2023-04-30T04:04:07;5.47;;;4.10;;
65583;SDS011;62116;43.582;1.470;2023-04-30T04:06:33;5.90;;;4.40;;
65583;SDS011;62116;43.582;1.470;2023-04-30T04:08:58;5.68;;;4.10;;
65583;SDS011;62116;43.582;1.470;2023-04-30T04:11:24;5.88;;;4.10;;
65583;SDS011;62116;43.582;1.470;2023-04-30T04:13:50;4.80;;;3.95;;
65583;SDS011;62116;43.582;1.470;2023-04-30T04:16:15;6.40;;;4.82;;
65583;SDS011;62116;43.582;1.470;2023-04-30T04:18:40;8.95;;;4.65;;
65583;SDS011;62116;43.582;1.470;2023-04-30T04:21:06;6.80;;;4.70;;
65583;SDS011;62116;43.582;1.470;2023-04-30T04:23:31;5.70;;;4.50;;
65583;SDS011;62116;43.582;1.470;2023-04-30T04:25:57;7.10;;;4.95;;
65583;SDS011;62116;43.582;1.470;2023-04-30T04:28:22;7.15;;;4.65;;
65583;SDS011;62116;43.582;1.470;2023-04-30T04:30:48;7.35;;;4.85;;
65583;SDS011;62116;43.582;1.470;2023-04-30T04:33:13;6.75;;;4.93;;
65583;SDS011;62116;43.582;1.470;2023-04-30T04:35:38;5.82;;;4.80;;
65583;SDS011;62116;43.582;1.470;2023-04-30T04:38:04;7.35;;;5.07;;
65583;SDS011;62116;43.582;1.470;2023-04-30T04:40:30;6.28;;;4.70;;
65583;SDS011;62116;43.582;1.470;2023-04-30T04:42:55;7.57;;;4.93;;
65583;SDS011;62116;43.582;1.470;2023-04-30T04:45:20;6.63;;;5.07;;
65583;SDS011;62116;43.582;1.470;2023-04-30T04:47:46;7.65;;;4.82;;
65583;SDS011;62116;43.582;1.470;2023-04-30T04:50:12;6.93;;;4.97;;
65583;SDS011;62116;43.582;1.470;2023-04-30T04:52:38;6.85;;;5.10;;
65583;SDS011;62116;43.582;1.470;2023-04-30T04:55:04;7.47;;;5.00;;
65583;SDS011;62116;43.582;1.470;2023-04-30T04:57:30;7.10;;;5.38;;
65583;SDS011;62116;43.582;1.470;2023-04-30T04:59:55;7.07;;;5.70;;
65583;SDS011;62116;43.582;1.470;2023-04-30T05:02:21;8.65;;;5.53;;
65583;SDS011;62116;43.582;1.470;2023-04-30T05:04:47;6.28;;;5.20;;
65583;SDS011;62116;43.582;1.470;2023-04-30T05:07:14;7.05;;;5.18;;
65583;SDS011;62116;43.582;1.470;2023-04-30T05:09:43;6.85;;;5.15;;
65583;SDS011;62116;43.582;1.470;2023-04-30T05:12:10;8.88;;;5.72;;
65583;SDS011;62116;43.582;1.470;2023-04-30T05:14:39;8.50;;;5.50;;
65583;SDS011;62116;43.582;1.470;2023-04-30T05:17:05;8.23;;;5.72;;
65583;SDS011;62116;43.582;1.470;2023-04-30T05:19:31;7.68;;;5.70;;
65583;SDS011;62116;43.582;1.470;2023-04-30T05:21:56;7.63;;;5.85;;
65583;SDS011;62116;43.582;1.470;2023-04-30T05:24:22;10.93;;;6.50;;
65583;SDS011;62116;43.582;1.470;2023-04-30T05:26:47;8.48;;;5.75;;
65583;SDS011;62116;43.582;1.470;2023-04-30T05:29:13;8.25;;;5.78;;
65583;SDS011;62116;43.582;1.470;2023-04-30T05:31:38;9.77;;;5.97;;
65583;SDS011;62116;43.582;1.470;2023-04-30T05:34:04;10.75;;;6.03;;
65583;SDS011;62116;43.582;1.470;2023-04-30T05:36:29;10.20;;;6.28;;
65583;SDS011;62116;43.582;1.470;2023-04-30T05:38:56;11.18;;;5.85;;
65583;SDS011;62116;43.582;1.470;2023-04-30T05:41:22;10.73;;;6.28;;
65583;SDS011;62116;43.582;1.470;2023-04-30T05:43:47;10.38;;;6.35;;
65583;SDS011;62116;43.582;1.470;2023-04-30T05:46:12;9.02;;;6.43;;
65583;SDS011;62116;43.582;1.470;2023-04-30T05:48:38;8.85;;;6.68;;
65583;SDS011;62116;43.582;1.470;2023-04-30T05:51:04;10.80;;;6.53;;
65583;SDS011;62116;43.582;1.470;2023-04-30T05:53:32;10.00;;;7.35;;
65583;SDS011;62116;43.582;1.470;2023-04-30T05:55:57;11.50;;;6.72;;
65583;SDS011;62116;43.582;1.470;2023-04-30T05:58:23;10.25;;;6.47;;
65583;SDS011;62116;43.582;1.470;2023-04-30T06:00:49;9.23;;;6.85;;
65583;SDS011;62116;43.582;1.470;2023-04-30T06:03:16;11.60;;;7.25;;
65583;SDS011;62116;43.582;1.470;2023-04-30T06:05:44;9.60;;;6.93;;
65583;SDS011;62116;43.582;1.470;2023-04-30T06:08:10;8.70;;;6.68;;
65583;SDS011;62116;43.582;1.470;2023-04-30T06:10:36;11.90;;;7.18;;
65583;SDS011;62116;43.582;1.470;2023-04-30T06:13:02;13.38;;;7.55;;
65583;SDS011;62116;43.582;1.470;2023-04-30T06:15:28;13.10;;;7.22;;
65583;SDS011;62116;43.582;1.470;2023-04-30T06:17:53;10.82;;;7.85;;
65583;SDS011;62116;43.582;1.470;2023-04-30T06:20:19;11.45;;;7.25;;
65583;SDS011;62116;43.582;1.470;2023-04-30T06:22:44;11.18;;;7.90;;
65583;SDS011;62116;43.582;1.470;2023-04-30T06:25:10;10.60;;;7.90;;
65583;SDS011;62116;43.582;1.470;2023-04-30T06:27:36;11.35;;;7.97;;
65583;SDS011;62116;43.582;1.470;2023-04-30T06:30:03;12.18;;;7.88;;
65583;SDS011;62116;43.582;1.470;2023-04-30T06:32:29;15.02;;;8.27;;
65583;SDS011;62116;43.582;1.470;2023-04-30T06:34:55;14.13;;;8.52;;
65583;SDS011;62116;43.582;1.470;2023-04-30T06:37:20;13.93;;;8.98;;
65583;SDS011;62116;43.582;1.470;2023-04-30T06:39:46;15.20;;;9.15;;
65583;SDS011;62116;43.582;1.470;2023-04-30T06:42:11;16.52;;;9.10;;
65583;SDS011;62116;43.582;1.470;2023-04-30T06:44:36;13.18;;;9.05;;
65583;SDS011;62116;43.582;1.470;2023-04-30T06:47:02;15.13;;;8.63;;
65583;SDS011;62116;43.582;1.470;2023-04-30T06:49:27;15.07;;;8.25;;
65583;SDS011;62116;43.582;1.470;2023-04-30T06:51:53;16.85;;;9.27;;
65583;SDS011;62116;43.582;1.470;2023-04-30T06:54:20;14.43;;;8.93;;
65583;SDS011;62116;43.582;1.470;2023-04-30T06:56:46;14.02;;;8.23;;
65583;SDS011;62116;43.582;1.470;2023-04-30T06:59:12;13.25;;;8.02;;
65583;SDS011;62116;43.582;1.470;2023-04-30T07:01:37;14.13;;;7.93;;
65583;SDS011;62116;43.582;1.470;2023-04-30T07:04:03;12.32;;;7.75;;
65583;SDS011;62116;43.582;1.470;2023-04-30T07:06:28;11.13;;;6.95;;
65583;SDS011;62116;43.582;1.470;2023-04-30T07:08:54;13.93;;;7.55;;
65583;SDS011;62116;43.582;1.470;2023-04-30T07:11:20;13.48;;;7.95;;
65583;SDS011;62116;43.582;1.470;2023-04-30T07:13:45;15.48;;;8.27;;
65583;SDS011;62116;43.582;1.470;2023-04-30T07:16:11;17.13;;;10.70;;
65583;SDS011;62116;43.582;1.470;2023-04-30T07:18:36;12.40;;;7.57;;
65583;SDS011;62116;43.582;1.470;2023-04-30T07:21:04;12.48;;;7.72;;
65583;SDS011;62116;43.582;1.470;2023-04-30T07:23:30;14.40;;;7.70;;
65583;SDS011;62116;43.582;1.470;2023-04-30T07:25:55;14.77;;;8.00;;
65583;SDS011;62116;43.582;1.470;2023-04-30T07:28:21;12.25;;;7.30;;
65583;SDS011;62116;43.582;1.470;2023-04-30T07:30:46;11.75;;;7.35;;
65583;SDS011;62116;43.582;1.470;2023-04-30T07:33:11;13.98;;;7.38;;
65583;SDS011;62116;43.582;1.470;2023-04-30T07:35:37;10.20;;;6.90;;
65583;SDS011;62116;43.582;1.470;2023-04-30T07:38:03;12.85;;;7.88;;
65583;SDS011;62116;43.582;1.470;2023-04-30T07:40:29;9.93;;;7.25;;
65583;SDS011;62116;43.582;1.470;2023-04-30T07:42:55;14.32;;;6.95;;
65583;SDS011;62116;43.582;1.470;2023-04-30T07:45:20;10.95;;;6.88;;
65583;SDS011;62116;43.582;1.470;2023-04-30T07:47:46;11.65;;;6.45;;
65583;SDS011;62116;43.582;1.470;2023-04-30T07:50:12;10.25;;;5.82;;
65583;SDS011;62116;43.582;1.470;2023-04-30T07:52:39;11.68;;;6.00;;
65583;SDS011;62116;43.582;1.470;2023-04-30T07:55:05;9.35;;;5.65;;
65583;SDS011;62116;43.582;1.470;2023-04-30T07:57:30;8.63;;;5.22;;
65583;SDS011;62116;43.582;1.470;2023-04-30T07:59:56;8.55;;;5.30;;
65583;SDS011;62116;43.582;1.470;2023-04-30T08:02:21;8.93;;;5.20;;
65583;SDS011;62116;43.582;1.470;2023-04-30T08:04:47;8.27;;;4.45;;
65583;SDS011;62116;43.582;1.470;2023-04-30T08:07:13;6.63;;;4.03;;
65583;SDS011;62116;43.582;1.470;2023-04-30T08:09:39;5.82;;;4.20;;
65583;SDS011;62116;43.582;1.470;2023-04-30T08:12:05;9.60;;;6.43;;
65583;SDS011;62116;43.582;1.470;2023-04-30T08:14:31;5.53;;;3.78;;
65583;SDS011;62116;43.582;1.470;2023-04-30T08:16:57;7.03;;;4.20;;
65583;SDS011;62116;43.582;1.470;2023-04-30T08:19:23;7.13;;;4.30;;
65583;SDS011;62116;43.582;1.470;2023-04-30T08:21:49;6.40;;;3.72;;
65583;SDS011;62116;43.582;1.470;2023-04-30T08:24:14;6.15;;;3.95;;
65583;SDS011;62116;43.582;1.470;2023-04-30T08:26:40;6.95;;;3.90;;
65583;SDS011;62116;43.582;1.470;2023-04-30T08:29:05;7.65;;;4.30;;
65583;SDS011;62116;43.582;1.470;2023-04-30T08:31:32;8.82;;;5.43;;
65583;SDS011;62116;43.582;1.470;2023-04-30T08:33:58;11.50;;;6.85;;
65583;SDS011;62116;43.582;1.470;2023-04-30T08:36:23;10.48;;;5.70;;
65583;SDS011;62116;43.582;1.470;2023-04-30T08:38:49;9.98;;;5.95;;
65583;SDS011;62116;43.582;1.470;2023-04-30T08:41:14;8.30;;;5.65;;
65583;SDS011;62116;43.582;1.470;2023-04-30T08:43:40;10.05;;;5.88;;
65583;SDS011;62116;43.582;1.470;2023-04-30T08:46:08;9.30;;;6.45;;
65583;SDS011;62116;43.582;1.470;2023-04-30T08:48:35;10.23;;;6.38;;
65583;SDS011;62116;43.582;1.470;2023-04-30T08:51:01;17.77;;;10.88;;
65583;SDS011;62116;43.582;1.470;2023-04-30T08:53:33;11.80;;;7.22;;
65583;SDS011;62116;43.582;1.470;2023-04-30T08:56:00;14.85;;;6.63;;
65583;SDS011;62116;43.582;1.470;2023-04-30T08:58:27;10.63;;;6.78;;
65583;SDS011;62116;43.582;1.470;2023-04-30T09:00:52;12.65;;;6.78;;
65583;SDS011;62116;43.582;1.470;2023-04-30T09:03:17;11.88;;;6.55;;
65583;SDS011;62116;43.582;1.470;2023-04-30T09:05:43;10.45;;;6.80;;
65583;SDS011;62116;43.582;1.470;2023-04-30T09:08:09;14.80;;;6.75;;
65583;SDS011;62116;43.582;1.470;2023-04-30T09:10:41;11.38;;;6.03;;
65583;SDS011;62116;43.582;1.470;2023-04-30T09:13:07;12.25;;;6.53;;
65583;SDS011;62116;43.582;1.470;2023-04-30T09:15:38;11.75;;;6.63;;
65583;SDS011;62116;43.582;1.470;2023-04-30T09:20:35;10.60;;;6.05;;
65583;SDS011;62116;43.582;1.470;2023-04-30T09:23:05;10.88;;;5.85;;
65583;SDS011;62116;43.582;1.470;2023-04-30T09:25:38;14.43;;;6.82;;
65583;SDS011;62116;43.582;1.470;2023-04-30T09:28:10;13.23;;;6.43;;
65583;SDS011;62116;43.582;1.470;2023-04-30T09:30:37;12.50;;;6.43;;
65583;SDS011;62116;43.582;1.470;2023-04-30T09:33:04;12.23;;;6.85;;
65583;SDS011;62116;43.582;1.470;2023-04-30T09:35:36;12.70;;;6.72;;
65583;SDS011;62116;43.582;1.470;2023-04-30T09:38:03;12.48;;;6.90;;
65583;SDS011;62116;43.582;1.470;2023-04-30T09:40:39;14.20;;;7.10;;
65583;SDS011;62116;43.582;1.470;2023-04-30T09:43:06;11.25;;;7.00;;
65583;SDS011;62116;43.582;1.470;2023-04-30T09:45:42;13.32;;;7.78;;
65583;SDS011;62116;43.582;1.470;2023-04-30T09:48:11;16.55;;;7.47;;
65583;SDS011;62116;43.582;1.470;2023-04-30T09:50:37;12.23;;;7.45;;
65583;SDS011;62116;43.582;1.470;2023-04-30T09:53:10;13.48;;;7.47;;
65583;SDS011;62116;43.582;1.470;2023-04-30T09:55:48;13.25;;;7.38;;
65583;SDS011;62116;43.582;1.470;2023-04-30T09:58:15;13.35;;;7.38;;
65583;SDS011;62116;43.582;1.470;2023-04-30T10:00:42;13.88;;;7.20;;
65583;SDS011;62116;43.582;1.470;2023-04-30T10:03:10;15.80;;;7.28;;
65583;SDS011;62116;43.582;1.470;2023-04-30T10:05:38;13.95;;;7.47;;
65583;SDS011;62116;43.582;1.470;2023-04-30T10:08:09;13.95;;;7.30;;
65583;SDS011;62116;43.582;1.470;2023-04-30T10:10:44;14.88;;;7.13;;
65583;SDS011;62116;43.582;1.470;2023-04-30T10:13:16;11.48;;;6.93;;
65583;SDS011;62116;43.582;1.470;2023-04-30T10:15:51;12.73;;;7.45;;
65583;SDS011;62116;43.582;1.470;2023-04-30T10:21:13;13.35;;;7.32;;
65583;SDS011;62116;43.582;1.470;2023-04-30T10:23:41;10.35;;;6.97;;
65583;SDS011;62116;43.582;1.470;2023-04-30T10:26:11;11.32;;;6.72;;
65583;SDS011;62116;43.582;1.470;2023-04-30T10:28:37;12.32;;;7.50;;
65583;SDS011;62116;43.582;1.470;2023-04-30T10:31:04;11.05;;;7.45;;
65583;SDS011;62116;43.582;1.470;2023-04-30T10:33:34;12.57;;;7.82;;
65583;SDS011;62116;43.582;1.470;2023-04-30T10:39:19;17.02;;;7.97;;
65583;SDS011;62116;43.582;1.470;2023-04-30T10:41:46;15.52;;;9.10;;
65583;SDS011;62116;43.582;1.470;2023-04-30T10:44:13;17.40;;;9.50;;
65583;SDS011;62116;43.582;1.470;2023-04-30T10:46:49;15.05;;;9.38;;
65583;SDS011;62116;43.582;1.470;2023-04-30T10:49:26;15.88;;;9.52;;
65583;SDS011;62116;43.582;1.470;2023-04-30T10:51:51;14.07;;;8.98;;
65583;SDS011;62116;43.582;1.470;2023-04-30T10:54:24;15.45;;;9.18;;
65583;SDS011;62116;43.582;1.470;2023-04-30T10:56:51;18.90;;;9.20;;
65583;SDS011;62116;43.582;1.470;2023-04-30T10:59:17;16.92;;;9.73;;
65583;SDS011;62116;43.582;1.470;2023-04-30T11:01:54;15.88;;;9.13;;
65583;SDS011;62116;43.582;1.470;2023-04-30T11:04:23;17.27;;;9.60;;
65583;SDS011;62116;43.582;1.470;2023-04-30T11:09:33;14.25;;;8.73;;
65583;SDS011;62116;43.582;1.470;2023-04-30T11:12:02;16.58;;;9.07;;
65583;SDS011;62116;43.582;1.470;2023-04-30T11:14:30;16.42;;;9.50;;
65583;SDS011;62116;43.582;1.470;2023-04-30T11:16:58;19.83;;;8.60;;
65583;SDS011;62116;43.582;1.470;2023-04-30T11:19:24;17.60;;;8.93;;
65583;SDS011;62116;43.582;1.470;2023-04-30T11:27:21;16.65;;;8.15;;
65583;SDS011;62116;43.582;1.470;2023-04-30T11:29:50;14.40;;;8.63;;
65583;SDS011;62116;43.582;1.470;2023-04-30T11:32:20;14.95;;;8.30;;
65583;SDS011;62116;43.582;1.470;2023-04-30T11:34:49;16.00;;;8.88;;
65583;SDS011;62116;43.582;1.470;2023-04-30T11:37:34;14.55;;;7.60;;
65583;SDS011;62116;43.582;1.470;2023-04-30T11:40:04;16.45;;;7.90;;
65583;SDS011;62116;43.582;1.470;2023-04-30T11:42:32;15.35;;;7.35;;
65583;SDS011;62116;43.582;1.470;2023-04-30T11:45:10;10.43;;;7.03;;
65583;SDS011;62116;43.582;1.470;2023-04-30T11:47:38;12.57;;;6.95;;
65583;SDS011;62116;43.582;1.470;2023-04-30T11:50:18;14.75;;;7.70;;
65583;SDS011;62116;43.582;1.470;2023-04-30T11:52:51;11.63;;;6.50;;
65583;SDS011;62116;43.582;1.470;2023-04-30T11:55:19;41.17;;;7.55;;
65583;SDS011;62116;43.582;1.470;2023-04-30T11:57:46;34.83;;;8.52;;
65583;SDS011;62116;43.582;1.470;2023-04-30T12:02:43;12.30;;;7.10;;
65583;SDS011;62116;43.582;1.470;2023-04-30T12:05:14;13.27;;;6.53;;
65583;SDS011;62116;43.582;1.470;2023-04-30T12:08:00;11.88;;;6.35;;
65583;SDS011;62116;43.582;1.470;2023-04-30T12:10:33;13.32;;;6.47;;
65583;SDS011;62116;43.582;1.470;2023-04-30T12:13:00;12.73;;;6.00;;
65583;SDS011;62116;43.582;1.470;2023-04-30T12:15:26;14.18;;;6.10;;
65583;SDS011;62116;43.582;1.470;2023-04-30T12:17:52;10.15;;;5.75;;
65583;SDS011;62116;43.582;1.470;2023-04-30T12:20:22;11.80;;;5.65;;
65583;SDS011;62116;43.582;1.470;2023-04-30T12:22:49;11.82;;;5.68;;
65583;SDS011;62116;43.582;1.470;2023-04-30T12:25:19;10.88;;;5.55;;
65583;SDS011;62116;43.582;1.470;2023-04-30T12:27:52;11.18;;;5.35;;
65583;SDS011;62116;43.582;1.470;2023-04-30T12:30:18;9.77;;;4.70;;
65583;SDS011;62116;43.582;1.470;2023-04-30T12:32:47;9.90;;;4.40;;
65583;SDS011;62116;43.582;1.470;2023-04-30T12:35:15;7.30;;;4.60;;
65583;SDS011;62116;43.582;1.470;2023-04-30T12:37:53;7.60;;;4.30;;
65583;SDS011;62116;43.582;1.470;2023-04-30T12:40:26;6.72;;;4.22;;
65583;SDS011;62116;43.582;1.470;2023-04-30T12:43:14;9.52;;;4.07;;
65583;SDS011;62116;43.582;1.470;2023-04-30T12:45:49;8.52;;;4.13;;
65583;SDS011;62116;43.582;1.470;2023-04-30T12:48:18;6.28;;;3.80;;
65583;SDS011;62116;43.582;1.470;2023-04-30T12:50:52;6.97;;;3.95;;
65583;SDS011;62116;43.582;1.470;2023-04-30T12:53:29;6.40;;;4.25;;
65583;SDS011;62116;43.582;1.470;2023-04-30T12:56:14;7.28;;;4.40;;
65583;SDS011;62116;43.582;1.470;2023-04-30T12:58:41;7.22;;;4.40;;
65583;SDS011;62116;43.582;1.470;2023-04-30T13:01:13;7.47;;;4.10;;
65583;SDS011;62116;43.582;1.470;2023-04-30T13:03:40;8.88;;;4.00;;
65583;SDS011;62116;43.582;1.470;2023-04-30T13:06:06;8.30;;;4.07;;
65583;SDS011;62116;43.582;1.470;2023-04-30T13:08:33;8.60;;;3.85;;
65583;SDS011;62116;43.582;1.470;2023-04-30T13:10:59;6.85;;;4.25;;
65583;SDS011;62116;43.582;1.470;2023-04-30T13:13:25;7.05;;;3.70;;
65583;SDS011;62116;43.582;1.470;2023-04-30T13:15:50;7.60;;;3.67;;
65583;SDS011;62116;43.582;1.470;2023-04-30T13:18:16;9.85;;;3.90;;
65583;SDS011;62116;43.582;1.470;2023-04-30T13:20:41;9.88;;;3.88;;
65583;SDS011;62116;43.582;1.470;2023-04-30T13:23:10;8.38;;;3.70;;
65583;SDS011;62116;43.582;1.470;2023-04-30T13:25:38;6.53;;;3.05;;
65583;SDS011;62116;43.582;1.470;2023-04-30T13:28:05;6.10;;;2.90;;
65583;SDS011;62116;43.582;1.470;2023-04-30T13:30:31;7.35;;;3.30;;
65583;SDS011;62116;43.582;1.470;2023-04-30T13:32:57;5.88;;;2.95;;
65583;SDS011;62116;43.582;1.470;2023-04-30T13:35:23;5.55;;;2.80;;
65583;SDS011;62116;43.582;1.470;2023-04-30T13:37:48;6.93;;;2.70;;
65583;SDS011;62116;43.582;1.470;2023-04-30T13:40:16;4.15;;;2.70;;
65583;SDS011;62116;43.582;1.470;2023-04-30T13:42:43;6.18;;;2.95;;
65583;SDS011;62116;43.582;1.470;2023-04-30T13:45:10;6.88;;;3.00;;
65583;SDS011;62116;43.582;1.470;2023-04-30T13:47:35;5.15;;;2.60;;
65583;SDS011;62116;43.582;1.470;2023-04-30T13:50:01;5.28;;;2.40;;
65583;SDS011;62116;43.582;1.470;2023-04-30T13:52:27;5.53;;;2.78;;
65583;SDS011;62116;43.582;1.470;2023-04-30T13:54:52;5.95;;;2.55;;
65583;SDS011;62116;43.582;1.470;2023-04-30T13:57:18;6.15;;;2.50;;
65583;SDS011;62116;43.582;1.470;2023-04-30T13:59:44;6.60;;;2.47;;
65583;SDS011;62116;43.582;1.470;2023-04-30T14:02:09;5.05;;;2.63;;
65583;SDS011;62116;43.582;1.470;2023-04-30T14:04:35;6.70;;;2.78;;
65583;SDS011;62116;43.582;1.470;2023-04-30T14:07:02;4.22;;;2.58;;
65583;SDS011;62116;43.582;1.470;2023-04-30T14:09:29;6.78;;;2.70;;
65583;SDS011;62116;43.582;1.470;2023-04-30T14:11:55;5.38;;;2.78;;
65583;SDS011;62116;43.582;1.470;2023-04-30T14:14:23;6.68;;;2.90;;
65583;SDS011;62116;43.582;1.470;2023-04-30T14:16:50;5.05;;;2.88;;
65583;SDS011;62116;43.582;1.470;2023-04-30T14:19:18;5.25;;;2.63;;
65583;SDS011;62116;43.582;1.470;2023-04-30T14:21:45;5.15;;;2.63;;
65583;SDS011;62116;43.582;1.470;2023-04-30T14:24:11;5.38;;;2.60;;
65583;SDS011;62116;43.582;1.470;2023-04-30T14:26:37;5.03;;;2.42;;
65583;SDS011;62116;43.582;1.470;2023-04-30T14:29:03;4.13;;;2.25;;
65583;SDS011;62116;43.582;1.470;2023-04-30T14:31:28;4.38;;;2.45;;
65583;SDS011;62116;43.582;1.470;2023-04-30T14:33:54;4.68;;;2.30;;
65583;SDS011;62116;43.582;1.470;2023-04-30T14:36:19;4.50;;;2.60;;
65583;SDS011;62116;43.582;1.470;2023-04-30T14:38:45;5.30;;;2.50;;
65583;SDS011;62116;43.582;1.470;2023-04-30T14:41:11;5.15;;;2.33;;
65583;SDS011;62116;43.582;1.470;2023-04-30T14:43:36;4.28;;;2.42;;
65583;SDS011;62116;43.582;1.470;2023-04-30T14:46:02;4.15;;;2.58;;
65583;SDS011;62116;43.582;1.470;2023-04-30T14:48:30;5.40;;;2.67;;
65583;SDS011;62116;43.582;1.470;2023-04-30T14:50:57;6.30;;;2.60;;
65583;SDS011;62116;43.582;1.470;2023-04-30T14:53:26;4.30;;;2.38;;
65583;SDS011;62116;43.582;1.470;2023-04-30T14:55:51;4.68;;;2.25;;
65583;SDS011;62116;43.582;1.470;2023-04-30T14:58:17;4.20;;;2.20;;
65583;SDS011;62116;43.582;1.470;2023-04-30T15:00:46;7.60;;;2.65;;
65583;SDS011;62116;43.582;1.470;2023-04-30T15:03:21;4.60;;;2.20;;
65583;SDS011;62116;43.582;1.470;2023-04-30T15:05:47;5.78;;;2.30;;
65583;SDS011;62116;43.582;1.470;2023-04-30T15:08:14;4.43;;;2.10;;
65583;SDS011;62116;43.582;1.470;2023-04-30T15:10:40;3.45;;;2.00;;
65583;SDS011;62116;43.582;1.470;2023-04-30T15:13:06;4.85;;;1.90;;
65583;SDS011;62116;43.582;1.470;2023-04-30T15:15:32;4.93;;;2.17;;
65583;SDS011;62116;43.582;1.470;2023-04-30T15:17:57;4.22;;;2.00;;
65583;SDS011;62116;43.582;1.470;2023-04-30T15:20:24;2.60;;;1.95;;
65583;SDS011;62116;43.582;1.470;2023-04-30T15:22:49;5.40;;;2.20;;